createdAt,value
2023-01-17T00:01:49.721Z,46.67
2023-01-17T00:05:10.372Z,43.28
2023-01-17T00:08:31.187Z,39.00
2023-01-17T00:11:33.603Z,38.03
2023-01-17T00:14:35.672Z,36.65
2023-01-17T00:17:37.816Z,39.20
2023-01-17T00:20:58.223Z,36.13
2023-01-17T00:24:20.554Z,33.10
2023-01-17T00:27:22.474Z,37.67
2023-01-17T00:30:24.730Z,37.63
2023-01-17T00:33:26.603Z,43.05
2023-01-17T00:36:28.539Z,41.25
2023-01-17T00:39:30.469Z,39.70
2023-01-17T00:42:32.401Z,38.50
2023-01-17T00:45:53.245Z,40.42
2023-01-17T00:49:13.862Z,37.80
2023-01-17T00:52:34.343Z,42.22
2023-01-17T00:55:55.002Z,38.03
2023-01-17T00:59:15.728Z,40.50
2023-01-17T01:02:36.542Z,37.92
2023-01-17T01:05:57.478Z,40.13
2023-01-17T01:09:18.050Z,36.10
2023-01-17T01:12:38.737Z,36.13
2023-01-17T01:15:59.113Z,38.20
2023-01-17T01:19:20.123Z,36.90
2023-01-17T01:22:40.667Z,36.93
2023-01-17T01:26:01.402Z,35.72
2023-01-17T01:29:21.916Z,35.95
2023-01-17T01:32:43.019Z,38.53
2023-01-17T01:35:55.102Z,40.78
2023-01-17T01:38:57.065Z,40.75
2023-01-17T01:41:59.032Z,40.40
2023-01-17T01:45:01.100Z,40.63
2023-01-17T01:48:12.782Z,36.97
2023-01-17T01:51:16.989Z,40.00
2023-01-17T01:54:29.930Z,41.70
2023-01-17T01:57:32.620Z,50.00
2023-01-17T02:00:35.265Z,42.28
2023-01-17T02:03:37.936Z,43.17
2023-01-17T02:06:40.666Z,45.08
2023-01-17T02:09:42.656Z,41.47
2023-01-17T02:12:45.922Z,43.58
2023-01-17T02:15:51.025Z,44.80
2023-01-17T02:19:02.104Z,46.78
2023-01-17T02:22:06.901Z,42.03
2023-01-17T02:25:21.512Z,43.17
2023-01-17T02:28:24.115Z,47.10
2023-01-17T02:31:32.025Z,47.33
2023-01-17T02:34:39.825Z,44.58
2023-01-17T02:37:54.231Z,45.25
2023-01-17T02:40:58.266Z,42.00
2023-01-17T02:44:00.926Z,46.42
2023-01-17T02:47:16.441Z,42.27
2023-01-17T02:50:19.861Z,41.28
2023-01-17T02:53:29.858Z,39.95
2023-01-17T02:56:32.714Z,40.43
2023-01-17T02:59:43.003Z,36.85
2023-01-17T03:02:51.570Z,39.83
2023-01-17T03:05:53.821Z,44.63
2023-01-17T03:08:56.137Z,44.10
2023-01-17T03:11:58.391Z,40.20
2023-01-17T03:15:00.293Z,40.30
2023-01-17T03:18:04.471Z,41.60
2023-01-17T03:21:10.906Z,36.88
2023-01-17T03:24:13.350Z,42.38
2023-01-17T03:27:15.313Z,31.47
2023-01-17T03:30:17.799Z,32.83
2023-01-17T03:33:20.170Z,32.40
2023-01-17T03:36:22.175Z,34.92
2023-01-17T03:39:24.307Z,32.55
2023-01-17T03:42:26.277Z,32.88
2023-01-17T03:45:28.739Z,33.25
2023-01-17T03:48:30.891Z,33.50
2023-01-17T03:51:32.895Z,32.13
2023-01-17T03:54:34.941Z,32.30
2023-01-17T03:57:36.899Z,28.00
2023-01-17T04:00:39.309Z,30.05
2023-01-17T04:03:41.237Z,36.47
2023-01-17T04:06:43.323Z,34.00
2023-01-17T04:09:45.820Z,40.28
2023-01-17T04:12:48.308Z,41.13
2023-01-17T04:15:50.560Z,39.30
2023-01-17T04:18:52.608Z,34.07
2023-01-17T04:21:54.601Z,30.75
2023-01-17T04:24:57.030Z,24.80
2023-01-17T04:27:59.719Z,30.03
2023-01-17T04:31:02.326Z,23.67
2023-01-17T04:34:04.894Z,23.35
2023-01-17T04:37:06.959Z,25.13
2023-01-17T04:40:09.325Z,20.48
2023-01-17T04:43:11.518Z,23.90
2023-01-17T04:46:13.604Z,19.83
2023-01-17T04:49:15.629Z,21.60
2023-01-17T04:52:19.737Z,17.35
2023-01-17T04:55:22.080Z,16.77
2023-01-17T04:58:24.568Z,19.33
2023-01-17T05:01:27.061Z,19.42
2023-01-17T05:04:29.231Z,16.27
2023-01-17T05:07:31.712Z,22.38
2023-01-17T05:10:33.807Z,14.88
2023-01-17T05:13:36.356Z,14.98
2023-01-17T05:16:38.356Z,13.23
2023-01-17T05:19:40.388Z,16.57
2023-01-17T05:22:42.536Z,15.45
2023-01-17T05:25:44.947Z,12.93
2023-01-17T05:28:47.067Z,13.47
2023-01-17T05:31:50.011Z,15.20
2023-01-17T05:34:52.411Z,15.90
2023-01-17T05:37:54.361Z,14.45
2023-01-17T05:40:59.189Z,14.57
2023-01-17T05:44:01.534Z,13.70
2023-01-17T05:47:09.497Z,13.25
2023-01-17T05:50:58.816Z,14.90
2023-01-17T05:54:05.048Z,12.90
2023-01-17T05:57:24.093Z,12.63
2023-01-17T06:00:43.834Z,11.40
2023-01-17T06:03:46.236Z,14.80
2023-01-17T06:06:48.294Z,14.00
2023-01-17T06:09:52.627Z,15.45
2023-01-17T06:13:02.055Z,15.73
2023-01-17T06:16:04.270Z,13.00
2023-01-17T06:19:06.786Z,15.20
2023-01-17T06:22:08.870Z,12.63
2023-01-17T06:25:11.289Z,15.68
2023-01-17T06:28:14.436Z,15.57
2023-01-17T06:31:17.005Z,13.10
2023-01-17T06:34:19.455Z,13.07
2023-01-17T06:37:21.475Z,14.02
2023-01-17T06:40:23.917Z,10.82
2023-01-17T06:43:26.857Z,10.68
2023-01-17T06:46:30.566Z,10.77
2023-01-17T06:49:32.727Z,10.73
2023-01-17T06:52:34.770Z,11.00
2023-01-17T06:55:37.072Z,10.75
2023-01-17T06:58:39.525Z,9.45
2023-01-17T07:01:42.163Z,13.77
2023-01-17T07:04:44.778Z,9.38
2023-01-17T07:07:47.179Z,11.55
2023-01-17T07:10:49.444Z,12.35
2023-01-17T07:13:51.789Z,12.32
2023-01-17T07:17:00.190Z,11.50
2023-01-17T07:20:02.383Z,10.27
2023-01-17T07:23:06.099Z,12.30
2023-01-17T07:26:08.352Z,8.43
2023-01-17T07:29:10.753Z,7.53
2023-01-17T07:32:13.272Z,8.47
2023-01-17T07:35:15.368Z,7.05
2023-01-17T07:38:18.322Z,7.75
2023-01-17T07:41:20.382Z,7.25
2023-01-17T07:44:22.528Z,6.80
2023-01-17T07:47:25.081Z,7.50
2023-01-17T07:50:27.329Z,8.75
2023-01-17T07:53:29.743Z,7.43
2023-01-17T07:56:33.488Z,6.82
2023-01-17T07:59:37.134Z,6.95
2023-01-17T08:02:39.240Z,6.17
2023-01-17T08:05:42.445Z,6.53
2023-01-17T08:08:44.609Z,5.55
2023-01-17T08:11:47.326Z,7.63
2023-01-17T08:14:49.384Z,7.35
2023-01-17T08:17:53.384Z,8.02
2023-01-17T08:20:55.767Z,8.13
2023-01-17T08:23:57.928Z,6.60
2023-01-17T08:27:00.116Z,8.30
2023-01-17T08:30:02.273Z,8.45
2023-01-17T08:33:04.438Z,10.20
2023-01-17T08:36:06.516Z,9.52
2023-01-17T08:39:09.042Z,8.13
2023-01-17T08:42:11.727Z,7.70
2023-01-17T08:45:15.085Z,9.10
2023-01-17T08:48:17.736Z,13.15
2023-01-17T08:51:19.908Z,7.85
2023-01-17T08:54:23.048Z,6.53
2023-01-17T08:57:25.105Z,5.53
2023-01-17T09:00:28.522Z,6.07
2023-01-17T09:03:31.383Z,5.83
2023-01-17T09:06:40.163Z,5.10
2023-01-17T09:09:42.669Z,6.38
2023-01-17T09:12:45.197Z,4.07
2023-01-17T09:15:47.305Z,7.30
2023-01-17T09:18:54.970Z,4.03
2023-01-17T09:21:57.219Z,4.25
2023-01-17T09:24:59.888Z,2.90
2023-01-17T09:28:02.004Z,2.95
2023-01-17T09:31:07.175Z,2.75
2023-01-17T09:34:09.232Z,2.70
2023-01-17T09:37:17.999Z,1.00
2023-01-17T09:40:23.636Z,2.75
2023-01-17T09:43:29.751Z,7.25
2023-01-17T09:46:35.834Z,5.00
2023-01-17T09:49:40.095Z,2.42
2023-01-17T09:52:42.691Z,1.30
2023-01-17T09:55:56.283Z,1.60
2023-01-17T09:59:18.525Z,2.15
2023-01-17T10:02:26.633Z,16.38
2023-01-17T10:05:32.987Z,3.13
2023-01-17T10:08:37.924Z,1.33
2023-01-17T10:11:43.224Z,16.52
2023-01-17T10:14:51.589Z,3.03
2023-01-17T10:18:21.774Z,2.60
2023-01-17T10:21:40.033Z,1.90
2023-01-17T10:24:45.021Z,3.47
2023-01-17T10:28:09.934Z,6.43
2023-01-17T10:31:13.708Z,4.28
2023-01-17T10:34:18.100Z,2.87
2023-01-17T10:37:28.110Z,5.70
2023-01-17T10:40:53.342Z,4.47
2023-01-17T10:44:12.081Z,4.55
2023-01-17T10:47:20.937Z,1.50
2023-01-17T10:50:23.024Z,56.53
2023-01-17T10:53:38.519Z,9.13
2023-01-17T10:56:41.472Z,1.92
2023-01-17T10:59:44.224Z,2.05
2023-01-17T11:02:47.783Z,2.03
2023-01-17T11:06:16.376Z,1.20
2023-01-17T11:09:18.482Z,2.20
2023-01-17T11:12:28.022Z,19.63
2023-01-17T11:15:32.167Z,12.57
2023-01-17T11:18:35.362Z,93.27
2023-01-17T11:21:38.215Z,71.17
2023-01-17T11:24:41.630Z,5.65
2023-01-17T11:27:44.625Z,1.15
2023-01-17T11:30:56.624Z,2.53
2023-01-17T11:34:17.507Z,2.10
2023-01-17T11:37:20.175Z,2.83
2023-01-17T11:40:31.776Z,1.20
2023-01-17T11:43:34.231Z,2.80
2023-01-17T11:46:36.892Z,1.60
2023-01-17T11:49:40.558Z,1.57
2023-01-17T11:52:43.672Z,3.20
2023-01-17T11:55:56.295Z,5.88
2023-01-17T11:59:10.066Z,3.65
2023-01-17T12:02:32.095Z,2.08
2023-01-17T12:05:40.975Z,2.03
2023-01-17T12:08:54.295Z,4.20
2023-01-17T12:12:20.230Z,5.30
2023-01-17T12:15:22.317Z,2.25
2023-01-17T12:18:27.122Z,2.72
2023-01-17T12:21:48.572Z,2.00
2023-01-17T12:24:50.613Z,1.70
2023-01-17T12:27:54.413Z,4.10
2023-01-17T12:31:15.153Z,5.30
2023-01-17T12:34:28.528Z,2.58
2023-01-17T12:37:38.057Z,3.50
2023-01-17T12:40:44.423Z,2.87
2023-01-17T12:43:46.603Z,2.20
2023-01-17T12:47:01.372Z,5.13
2023-01-17T12:50:24.517Z,2.88
2023-01-17T12:53:45.763Z,5.13
2023-01-17T12:56:49.617Z,2.60
2023-01-17T12:59:58.193Z,2.63
2023-01-17T13:03:06.368Z,6.97
2023-01-17T13:06:09.916Z,14.63
2023-01-17T13:09:12.505Z,6.17
2023-01-17T13:12:18.254Z,3.37
2023-01-17T13:15:22.214Z,5.82
2023-01-17T13:18:26.083Z,4.18
2023-01-17T13:21:30.086Z,7.32
2023-01-17T13:24:35.780Z,10.53
2023-01-17T13:27:57.536Z,29.92
2023-01-17T13:31:02.600Z,14.75
2023-01-17T13:34:20.093Z,6.35
2023-01-17T13:37:22.098Z,6.13
2023-01-17T13:40:34.690Z,5.30
2023-01-17T13:44:03.133Z,30.90
2023-01-17T13:47:07.425Z,25.80
2023-01-17T13:50:48.581Z,10.13
2023-01-17T13:53:50.593Z,3.90
2023-01-17T13:56:52.944Z,3.58
2023-01-17T13:59:57.580Z,4.53
2023-01-17T14:02:59.792Z,9.50
2023-01-17T14:06:01.804Z,6.40
2023-01-17T14:09:12.925Z,4.85
2023-01-17T14:12:21.795Z,5.87
2023-01-17T14:15:25.845Z,5.88
2023-01-17T14:18:37.563Z,5.22
2023-01-17T14:21:39.726Z,4.93
2023-01-17T14:25:00.642Z,8.13
2023-01-17T14:28:03.824Z,9.93
2023-01-17T14:31:09.191Z,10.38
2023-01-17T14:34:12.489Z,9.77
2023-01-17T14:37:23.281Z,14.63
2023-01-17T14:40:30.757Z,9.32
2023-01-17T14:43:33.368Z,5.40
2023-01-17T14:46:39.149Z,4.75
2023-01-17T14:49:41.330Z,4.93
2023-01-17T14:52:45.242Z,6.45
2023-01-17T14:55:47.322Z,6.32
2023-01-17T14:59:04.563Z,6.30
2023-01-17T15:02:13.480Z,7.27
2023-01-17T15:05:16.216Z,8.60
2023-01-17T15:08:24.287Z,5.35
2023-01-17T15:11:29.805Z,6.93
2023-01-17T15:14:33.348Z,5.88
2023-01-17T15:17:36.017Z,6.57
2023-01-17T15:20:38.756Z,8.07
2023-01-17T15:23:44.743Z,7.85
2023-01-17T15:26:47.205Z,10.60
2023-01-17T15:29:49.444Z,10.88
2023-01-17T15:32:52.519Z,6.00
2023-01-17T15:36:01.776Z,4.82
2023-01-17T15:39:04.818Z,5.15
2023-01-17T15:42:07.787Z,5.70
2023-01-17T15:45:15.640Z,9.25
2023-01-17T15:48:29.907Z,6.90
2023-01-17T15:51:33.681Z,7.38
2023-01-17T15:54:41.893Z,8.83
2023-01-17T15:57:44.997Z,18.52
2023-01-17T16:00:47.260Z,13.68
2023-01-17T16:03:55.422Z,20.43
2023-01-17T16:07:08.597Z,14.93
2023-01-17T16:10:13.720Z,11.15
2023-01-17T16:13:15.814Z,29.85
2023-01-17T16:16:22.315Z,25.80
2023-01-17T16:19:25.062Z,16.92
2023-01-17T16:22:27.244Z,13.95
2023-01-17T16:25:32.550Z,10.13
2023-01-17T16:28:34.747Z,13.07
2023-01-17T16:31:36.936Z,6.50
2023-01-17T16:34:39.127Z,5.73
2023-01-17T16:37:41.847Z,6.63
2023-01-17T16:40:45.735Z,8.00
2023-01-17T16:43:50.473Z,6.68
2023-01-17T16:46:52.531Z,9.52
2023-01-17T16:49:54.518Z,6.85
2023-01-17T16:52:57.105Z,9.30
2023-01-17T16:55:59.396Z,8.27
2023-01-17T16:59:01.702Z,7.03
2023-01-17T17:02:05.220Z,23.83
2023-01-17T17:05:08.044Z,15.20
2023-01-17T17:08:10.620Z,8.85
2023-01-17T17:11:17.406Z,18.05
2023-01-17T17:14:19.628Z,28.98
2023-01-17T17:17:21.809Z,33.70
2023-01-17T17:20:25.272Z,27.33
2023-01-17T17:23:27.519Z,37.53
2023-01-17T17:26:31.222Z,33.07
2023-01-17T17:29:33.388Z,27.48
2023-01-17T17:32:35.627Z,16.63
2023-01-17T17:35:38.174Z,13.52
2023-01-17T17:38:53.089Z,8.30
2023-01-17T17:41:55.225Z,8.32
2023-01-17T17:44:57.650Z,10.02
2023-01-17T17:48:00.140Z,9.13
2023-01-17T17:51:02.897Z,10.65
2023-01-17T17:54:08.724Z,10.65
2023-01-17T17:57:10.858Z,11.23
2023-01-17T18:00:13.289Z,12.25
2023-01-17T18:03:15.535Z,12.43
2023-01-17T18:06:18.404Z,12.55
2023-01-17T18:09:20.596Z,12.95
2023-01-17T18:12:23.056Z,10.90
2023-01-17T18:15:25.193Z,15.30
2023-01-17T18:18:28.118Z,35.00
2023-01-17T18:21:34.340Z,18.77
2023-01-17T18:24:36.327Z,11.77
2023-01-17T18:27:39.782Z,15.00
2023-01-17T18:30:42.227Z,11.82
2023-01-17T18:33:44.192Z,6.90
2023-01-17T18:36:46.312Z,8.45
2023-01-17T18:39:48.406Z,7.80
2023-01-17T18:42:50.841Z,12.18
2023-01-17T18:45:53.013Z,8.25
2023-01-17T18:48:55.610Z,7.03
2023-01-17T18:51:57.625Z,7.40
2023-01-17T18:54:59.755Z,8.68
2023-01-17T18:58:02.068Z,8.37
2023-01-17T19:01:14.400Z,7.88
2023-01-17T19:04:17.423Z,8.85
2023-01-17T19:07:21.281Z,8.38
2023-01-17T19:10:23.384Z,7.50
2023-01-17T19:13:25.726Z,10.70
2023-01-17T19:16:28.728Z,9.43
2023-01-17T19:19:30.820Z,7.70
2023-01-17T19:22:32.932Z,10.15
2023-01-17T19:25:35.482Z,7.05
2023-01-17T19:28:38.145Z,7.37
2023-01-17T19:31:43.285Z,7.80
2023-01-17T19:34:45.640Z,6.47
2023-01-17T19:37:48.944Z,6.47
2023-01-17T19:40:51.008Z,7.13
2023-01-17T19:43:54.415Z,5.43
2023-01-17T19:46:56.785Z,5.38
2023-01-17T19:49:59.370Z,4.67
2023-01-17T19:53:01.366Z,6.35
2023-01-17T19:56:04.796Z,6.07
2023-01-17T19:59:07.153Z,18.67
2023-01-17T20:02:09.558Z,11.50
2023-01-17T20:05:12.108Z,9.32
2023-01-17T20:08:14.301Z,11.27
2023-01-17T20:11:18.533Z,11.02
2023-01-17T20:14:21.814Z,6.03
2023-01-17T20:17:24.259Z,6.30
2023-01-17T20:20:26.443Z,6.13
2023-01-17T20:23:28.399Z,6.60
2023-01-17T20:26:34.933Z,5.43
2023-01-17T20:29:40.628Z,6.00
2023-01-17T20:32:42.739Z,4.40
2023-01-17T20:35:44.736Z,5.03
2023-01-17T20:38:46.859Z,3.20
2023-01-17T20:41:51.530Z,3.38
2023-01-17T20:44:53.477Z,3.78
2023-01-17T20:47:56.235Z,4.07
2023-01-17T20:51:10.488Z,3.80
2023-01-17T20:54:14.316Z,4.53
2023-01-17T20:57:16.296Z,4.18
2023-01-17T21:00:18.397Z,4.90
2023-01-17T21:03:20.373Z,13.68
2023-01-17T21:06:23.027Z,7.95
2023-01-17T21:09:25.069Z,4.75
2023-01-17T21:12:27.066Z,7.90
2023-01-17T21:15:29.426Z,4.43
2023-01-17T21:18:32.069Z,3.58
2023-01-17T21:21:34.130Z,5.20
2023-01-17T21:24:36.541Z,3.80
2023-01-17T21:27:38.984Z,2.05
2023-01-17T21:30:41.005Z,2.10
2023-01-17T21:33:43.437Z,2.60
2023-01-17T21:36:45.398Z,2.75
2023-01-17T21:39:51.448Z,2.78
2023-01-17T21:42:53.536Z,3.55
2023-01-17T21:45:55.545Z,3.85
2023-01-17T21:48:57.859Z,3.72
2023-01-17T21:51:59.800Z,3.20
2023-01-17T21:55:20.768Z,2.88
2023-01-17T21:58:41.229Z,5.72
2023-01-17T22:01:43.521Z,3.73
2023-01-17T22:04:45.597Z,6.32
2023-01-17T22:08:06.366Z,7.80
2023-01-17T22:11:09.233Z,5.10
2023-01-17T22:14:11.724Z,12.73
2023-01-17T22:17:14.131Z,12.57
2023-01-17T22:20:16.298Z,12.50
2023-01-17T22:23:18.269Z,10.27
2023-01-17T22:26:20.800Z,8.27
2023-01-17T22:29:23.129Z,8.73
2023-01-17T22:32:25.077Z,9.00
2023-01-17T22:35:27.219Z,8.60
2023-01-17T22:38:29.224Z,7.90
2023-01-17T22:41:32.874Z,8.18
2023-01-17T22:44:35.362Z,10.43
2023-01-17T22:47:37.853Z,9.13
2023-01-17T22:50:39.776Z,7.35
2023-01-17T22:53:42.209Z,5.93
2023-01-17T22:56:44.304Z,5.82
2023-01-17T22:59:46.388Z,6.18
2023-01-17T23:02:48.513Z,6.33
2023-01-17T23:05:50.464Z,6.88
2023-01-17T23:08:53.934Z,5.22
2023-01-17T23:11:56.394Z,5.68
2023-01-17T23:15:16.910Z,5.50
2023-01-17T23:18:37.918Z,6.63
2023-01-17T23:21:58.335Z,6.97
2023-01-17T23:25:01.253Z,8.53
2023-01-17T23:28:14.444Z,8.95
2023-01-17T23:31:16.419Z,6.38
2023-01-17T23:34:19.356Z,5.00
2023-01-17T23:37:21.471Z,7.68
2023-01-17T23:40:23.438Z,6.93
2023-01-17T23:43:25.912Z,5.75
2023-01-17T23:46:30.153Z,6.80
2023-01-17T23:49:32.447Z,9.05
2023-01-17T23:52:34.414Z,9.30
2023-01-17T23:55:36.794Z,9.23
2023-01-17T23:58:38.871Z,7.93
